sensor_id;sensor_type;location;lat;lon;timestamp;P1;durP1;ratioP1;P2;durP2;ratioP2
27618;SDS011;15039;50.830;4.730;2023-12-20T00:01:33;10.60;;;2.35;;
27618;SDS011;15039;50.830;4.730;2023-12-20T00:03:58;7.53;;;1.92;;
27618;SDS011;15039;50.830;4.730;2023-12-20T00:06:24;6.13;;;2.00;;
27618;SDS011;15039;50.830;4.730;2023-12-20T00:08:50;8.75;;;3.25;;
27618;SDS011;15039;50.830;4.730;2023-12-20T00:11:15;8.50;;;2.00;;
27618;SDS011;15039;50.830;4.730;2023-12-20T00:13:41;7.60;;;1.95;;
27618;SDS011;15039;50.830;4.730;2023-12-20T00:16:07;5.70;;;1.50;;
27618;SDS011;15039;50.830;4.730;2023-12-20T00:18:32;6.40;;;1.80;;
27618;SDS011;15039;50.830;4.730;2023-12-20T00:20:58;6.47;;;2.15;;
27618;SDS011;15039;50.830;4.730;2023-12-20T00:23:24;6.05;;;1.75;;
27618;SDS011;15039;50.830;4.730;2023-12-20T00:25:49;6.88;;;1.48;;
27618;SDS011;15039;50.830;4.730;2023-12-20T00:28:15;3.45;;;1.60;;
27618;SDS011;15039;50.830;4.730;2023-12-20T00:30:41;11.88;;;4.82;;
27618;SDS011;15039;50.830;4.730;2023-12-20T00:33:06;6.80;;;1.55;;
27618;SDS011;15039;50.830;4.730;2023-12-20T00:35:32;5.63;;;1.50;;
27618;SDS011;15039;50.830;4.730;2023-12-20T00:37:58;4.03;;;1.48;;
27618;SDS011;15039;50.830;4.730;2023-12-20T00:40:24;5.10;;;1.70;;
27618;SDS011;15039;50.830;4.730;2023-12-20T00:42:49;8.57;;;1.90;;
27618;SDS011;15039;50.830;4.730;2023-12-20T00:45:15;6.45;;;2.10;;
27618;SDS011;15039;50.830;4.730;2023-12-20T00:47:41;4.65;;;1.27;;
27618;SDS011;15039;50.830;4.730;2023-12-20T00:50:07;6.10;;;1.63;;
27618;SDS011;15039;50.830;4.730;2023-12-20T00:52:33;6.75;;;1.85;;
27618;SDS011;15039;50.830;4.730;2023-12-20T00:54:59;7.65;;;1.70;;
27618;SDS011;15039;50.830;4.730;2023-12-20T00:57:25;10.23;;;2.03;;
27618;SDS011;15039;50.830;4.730;2023-12-20T00:59:50;6.57;;;1.88;;
27618;SDS011;15039;50.830;4.730;2023-12-20T01:02:16;11.57;;;1.90;;
27618;SDS011;15039;50.830;4.730;2023-12-20T01:04:42;6.80;;;1.60;;
27618;SDS011;15039;50.830;4.730;2023-12-20T01:07:08;4.88;;;1.70;;
27618;SDS011;15039;50.830;4.730;2023-12-20T01:09:33;5.47;;;1.60;;
27618;SDS011;15039;50.830;4.730;2023-12-20T01:11:59;4.47;;;1.88;;
27618;SDS011;15039;50.830;4.730;2023-12-20T01:14:25;6.60;;;1.67;;
27618;SDS011;15039;50.830;4.730;2023-12-20T01:16:50;6.43;;;2.17;;
27618;SDS011;15039;50.830;4.730;2023-12-20T01:19:16;6.95;;;2.03;;
27618;SDS011;15039;50.830;4.730;2023-12-20T01:21:42;8.45;;;2.70;;
27618;SDS011;15039;50.830;4.730;2023-12-20T01:24:07;7.22;;;1.70;;
27618;SDS011;15039;50.830;4.730;2023-12-20T01:26:33;6.75;;;2.05;;
27618;SDS011;15039;50.830;4.730;2023-12-20T01:28:59;8.25;;;2.35;;
27618;SDS011;15039;50.830;4.730;2023-12-20T01:31:25;8.80;;;1.88;;
27618;SDS011;15039;50.830;4.730;2023-12-20T01:33:52;7.53;;;1.77;;
27618;SDS011;15039;50.830;4.730;2023-12-20T01:36:18;4.35;;;1.55;;
27618;SDS011;15039;50.830;4.730;2023-12-20T01:38:44;10.80;;;2.00;;
27618;SDS011;15039;50.830;4.730;2023-12-20T01:41:10;6.53;;;2.40;;
27618;SDS011;15039;50.830;4.730;2023-12-20T01:43:36;5.97;;;2.03;;
27618;SDS011;15039;50.830;4.730;2023-12-20T01:46:01;6.20;;;1.80;;
27618;SDS011;15039;50.830;4.730;2023-12-20T01:48:28;9.40;;;2.10;;
27618;SDS011;15039;50.830;4.730;2023-12-20T01:50:54;9.88;;;2.10;;
27618;SDS011;15039;50.830;4.730;2023-12-20T01:53:21;5.15;;;1.98;;
27618;SDS011;15039;50.830;4.730;2023-12-20T01:55:49;9.60;;;2.15;;
27618;SDS011;15039;50.830;4.730;2023-12-20T01:58:17;6.78;;;1.83;;
27618;SDS011;15039;50.830;4.730;2023-12-20T02:00:43;7.22;;;2.40;;
27618;SDS011;15039;50.830;4.730;2023-12-20T02:03:09;12.30;;;2.28;;
27618;SDS011;15039;50.830;4.730;2023-12-20T02:05:37;7.28;;;2.20;;
27618;SDS011;15039;50.830;4.730;2023-12-20T02:08:18;8.82;;;2.58;;
27618;SDS011;15039;50.830;4.730;2023-12-20T02:10:43;7.43;;;2.38;;
27618;SDS011;15039;50.830;4.730;2023-12-20T02:13:09;8.20;;;2.75;;
27618;SDS011;15039;50.830;4.730;2023-12-20T02:15:35;8.52;;;2.20;;
27618;SDS011;15039;50.830;4.730;2023-12-20T02:18:02;9.63;;;2.42;;
27618;SDS011;15039;50.830;4.730;2023-12-20T02:20:28;11.70;;;2.72;;
27618;SDS011;15039;50.830;4.730;2023-12-20T02:22:54;5.13;;;2.40;;
27618;SDS011;15039;50.830;4.730;2023-12-20T02:25:20;7.53;;;2.78;;
27618;SDS011;15039;50.830;4.730;2023-12-20T02:27:46;10.32;;;2.63;;
27618;SDS011;15039;50.830;4.730;2023-12-20T02:30:13;3.55;;;1.95;;
27618;SDS011;15039;50.830;4.730;2023-12-20T02:32:39;11.52;;;2.88;;
27618;SDS011;15039;50.830;4.730;2023-12-20T02:35:05;12.43;;;2.88;;
27618;SDS011;15039;50.830;4.730;2023-12-20T02:37:32;10.32;;;2.17;;
27618;SDS011;15039;50.830;4.730;2023-12-20T02:39:58;7.88;;;2.63;;
27618;SDS011;15039;50.830;4.730;2023-12-20T02:42:23;10.52;;;2.58;;
27618;SDS011;15039;50.830;4.730;2023-12-20T02:44:49;8.32;;;2.42;;
27618;SDS011;15039;50.830;4.730;2023-12-20T02:47:14;10.38;;;2.78;;
27618;SDS011;15039;50.830;4.730;2023-12-20T02:49:40;5.20;;;2.47;;
27618;SDS011;15039;50.830;4.730;2023-12-20T02:52:06;7.07;;;2.35;;
27618;SDS011;15039;50.830;4.730;2023-12-20T02:54:32;12.48;;;2.40;;
27618;SDS011;15039;50.830;4.730;2023-12-20T02:56:57;8.88;;;2.95;;
27618;SDS011;15039;50.830;4.730;2023-12-20T02:59:23;7.85;;;2.70;;
27618;SDS011;15039;50.830;4.730;2023-12-20T03:01:49;10.00;;;3.20;;
27618;SDS011;15039;50.830;4.730;2023-12-20T03:04:15;10.90;;;3.28;;
27618;SDS011;15039;50.830;4.730;2023-12-20T03:06:40;10.90;;;2.75;;
27618;SDS011;15039;50.830;4.730;2023-12-20T03:09:06;44.63;;;5.30;;
27618;SDS011;15039;50.830;4.730;2023-12-20T03:11:32;13.88;;;3.17;;
27618;SDS011;15039;50.830;4.730;2023-12-20T03:13:58;10.55;;;2.80;;
27618;SDS011;15039;50.830;4.730;2023-12-20T03:16:23;9.60;;;2.58;;
27618;SDS011;15039;50.830;4.730;2023-12-20T03:18:49;10.23;;;3.17;;
27618;SDS011;15039;50.830;4.730;2023-12-20T03:21:15;10.15;;;2.78;;
27618;SDS011;15039;50.830;4.730;2023-12-20T03:23:41;6.80;;;2.90;;
27618;SDS011;15039;50.830;4.730;2023-12-20T03:26:07;7.15;;;2.58;;
27618;SDS011;15039;50.830;4.730;2023-12-20T03:28:33;7.68;;;2.67;;
27618;SDS011;15039;50.830;4.730;2023-12-20T03:30:59;9.18;;;4.00;;
27618;SDS011;15039;50.830;4.730;2023-12-20T03:33:25;12.38;;;2.90;;
27618;SDS011;15039;50.830;4.730;2023-12-20T03:35:51;9.07;;;3.60;;
27618;SDS011;15039;50.830;4.730;2023-12-20T03:38:16;6.93;;;2.25;;
27618;SDS011;15039;50.830;4.730;2023-12-20T03:40:42;9.73;;;2.50;;
27618;SDS011;15039;50.830;4.730;2023-12-20T03:43:08;16.20;;;2.63;;
27618;SDS011;15039;50.830;4.730;2023-12-20T03:45:33;7.47;;;2.42;;
27618;SDS011;15039;50.830;4.730;2023-12-20T03:47:59;6.07;;;2.28;;
27618;SDS011;15039;50.830;4.730;2023-12-20T03:50:25;10.45;;;3.22;;
27618;SDS011;15039;50.830;4.730;2023-12-20T03:52:51;11.23;;;3.05;;
27618;SDS011;15039;50.830;4.730;2023-12-20T03:55:17;7.90;;;2.92;;
27618;SDS011;15039;50.830;4.730;2023-12-20T03:57:43;15.45;;;3.20;;
27618;SDS011;15039;50.830;4.730;2023-12-20T04:00:08;12.35;;;3.33;;
27618;SDS011;15039;50.830;4.730;2023-12-20T04:05:04;10.27;;;3.15;;
27618;SDS011;15039;50.830;4.730;2023-12-20T04:07:31;10.35;;;3.60;;
27618;SDS011;15039;50.830;4.730;2023-12-20T04:09:57;9.75;;;2.47;;
27618;SDS011;15039;50.830;4.730;2023-12-20T04:12:22;10.00;;;3.05;;
27618;SDS011;15039;50.830;4.730;2023-12-20T04:14:48;9.73;;;2.92;;
27618;SDS011;15039;50.830;4.730;2023-12-20T04:17:14;16.50;;;5.47;;
27618;SDS011;15039;50.830;4.730;2023-12-20T04:19:44;11.63;;;3.28;;
27618;SDS011;15039;50.830;4.730;2023-12-20T04:22:09;13.65;;;4.13;;
27618;SDS011;15039;50.830;4.730;2023-12-20T04:24:35;9.23;;;3.22;;
27618;SDS011;15039;50.830;4.730;2023-12-20T04:27:01;10.57;;;3.03;;
27618;SDS011;15039;50.830;4.730;2023-12-20T04:29:27;7.82;;;2.90;;
27618;SDS011;15039;50.830;4.730;2023-12-20T04:31:53;13.63;;;3.53;;
27618;SDS011;15039;50.830;4.730;2023-12-20T04:34:18;12.40;;;3.65;;
27618;SDS011;15039;50.830;4.730;2023-12-20T04:36:44;7.65;;;3.20;;
27618;SDS011;15039;50.830;4.730;2023-12-20T04:39:13;16.33;;;3.85;;
27618;SDS011;15039;50.830;4.730;2023-12-20T04:44:05;14.73;;;3.25;;
27618;SDS011;15039;50.830;4.730;2023-12-20T04:46:31;13.73;;;3.67;;
27618;SDS011;15039;50.830;4.730;2023-12-20T04:48:57;13.70;;;3.22;;
27618;SDS011;15039;50.830;4.730;2023-12-20T04:51:22;8.77;;;2.97;;
27618;SDS011;15039;50.830;4.730;2023-12-20T04:53:48;7.95;;;3.60;;
27618;SDS011;15039;50.830;4.730;2023-12-20T04:56:14;11.05;;;3.42;;
27618;SDS011;15039;50.830;4.730;2023-12-20T04:58:40;9.65;;;3.42;;
27618;SDS011;15039;50.830;4.730;2023-12-20T05:01:06;9.85;;;3.45;;
27618;SDS011;15039;50.830;4.730;2023-12-20T05:03:32;13.80;;;3.67;;
27618;SDS011;15039;50.830;4.730;2023-12-20T05:05:58;8.52;;;2.75;;
27618;SDS011;15039;50.830;4.730;2023-12-20T05:08:23;10.73;;;3.50;;
27618;SDS011;15039;50.830;4.730;2023-12-20T05:10:50;8.45;;;3.00;;
27618;SDS011;15039;50.830;4.730;2023-12-20T05:13:16;7.35;;;2.80;;
27618;SDS011;15039;50.830;4.730;2023-12-20T05:15:42;8.52;;;3.33;;
27618;SDS011;15039;50.830;4.730;2023-12-20T05:18:08;12.52;;;3.45;;
27618;SDS011;15039;50.830;4.730;2023-12-20T05:20:33;8.35;;;3.20;;
27618;SDS011;15039;50.830;4.730;2023-12-20T05:22:59;10.73;;;3.17;;
27618;SDS011;15039;50.830;4.730;2023-12-20T05:25:24;9.63;;;3.53;;
27618;SDS011;15039;50.830;4.730;2023-12-20T05:27:50;9.90;;;3.25;;
27618;SDS011;15039;50.830;4.730;2023-12-20T05:30:16;10.15;;;2.83;;
27618;SDS011;15039;50.830;4.730;2023-12-20T05:32:41;12.00;;;3.28;;
27618;SDS011;15039;50.830;4.730;2023-12-20T05:35:07;9.50;;;2.95;;
27618;SDS011;15039;50.830;4.730;2023-12-20T05:37:33;13.00;;;3.60;;
27618;SDS011;15039;50.830;4.730;2023-12-20T05:39:58;11.57;;;3.60;;
27618;SDS011;15039;50.830;4.730;2023-12-20T05:42:24;8.13;;;3.15;;
27618;SDS011;15039;50.830;4.730;2023-12-20T05:44:50;11.32;;;3.35;;
27618;SDS011;15039;50.830;4.730;2023-12-20T05:47:15;14.40;;;3.97;;
27618;SDS011;15039;50.830;4.730;2023-12-20T05:49:41;9.73;;;3.60;;
27618;SDS011;15039;50.830;4.730;2023-12-20T05:52:07;13.80;;;2.97;;
27618;SDS011;15039;50.830;4.730;2023-12-20T05:54:33;11.88;;;3.63;;
27618;SDS011;15039;50.830;4.730;2023-12-20T05:56:59;7.80;;;3.50;;
27618;SDS011;15039;50.830;4.730;2023-12-20T05:59:25;13.35;;;3.22;;
27618;SDS011;15039;50.830;4.730;2023-12-20T06:01:51;10.60;;;2.88;;
27618;SDS011;15039;50.830;4.730;2023-12-20T06:04:17;12.23;;;3.05;;
27618;SDS011;15039;50.830;4.730;2023-12-20T06:06:42;7.90;;;2.95;;
27618;SDS011;15039;50.830;4.730;2023-12-20T06:09:08;8.30;;;2.80;;
27618;SDS011;15039;50.830;4.730;2023-12-20T06:11:34;12.75;;;3.33;;
27618;SDS011;15039;50.830;4.730;2023-12-20T06:14:00;12.45;;;3.20;;
27618;SDS011;15039;50.830;4.730;2023-12-20T06:16:26;7.68;;;3.03;;
27618;SDS011;15039;50.830;4.730;2023-12-20T06:18:51;13.65;;;3.40;;
27618;SDS011;15039;50.830;4.730;2023-12-20T06:21:17;9.82;;;3.50;;
27618;SDS011;15039;50.830;4.730;2023-12-20T06:23:43;11.40;;;3.65;;
27618;SDS011;15039;50.830;4.730;2023-12-20T06:26:09;10.05;;;4.47;;
27618;SDS011;15039;50.830;4.730;2023-12-20T06:28:35;16.02;;;3.80;;
27618;SDS011;15039;50.830;4.730;2023-12-20T06:31:00;16.88;;;3.47;;
27618;SDS011;15039;50.830;4.730;2023-12-20T06:33:26;9.82;;;4.28;;
27618;SDS011;15039;50.830;4.730;2023-12-20T06:35:52;10.75;;;3.85;;
27618;SDS011;15039;50.830;4.730;2023-12-20T06:38:18;11.65;;;3.35;;
27618;SDS011;15039;50.830;4.730;2023-12-20T06:40:44;10.98;;;3.63;;
27618;SDS011;15039;50.830;4.730;2023-12-20T06:43:10;11.25;;;3.97;;
27618;SDS011;15039;50.830;4.730;2023-12-20T06:45:37;12.13;;;3.70;;
27618;SDS011;15039;50.830;4.730;2023-12-20T06:48:02;8.98;;;3.47;;
27618;SDS011;15039;50.830;4.730;2023-12-20T06:50:28;13.35;;;3.20;;
27618;SDS011;15039;50.830;4.730;2023-12-20T06:52:54;11.10;;;3.28;;
27618;SDS011;15039;50.830;4.730;2023-12-20T06:55:20;8.20;;;3.10;;
27618;SDS011;15039;50.830;4.730;2023-12-20T06:57:45;10.88;;;3.20;;
27618;SDS011;15039;50.830;4.730;2023-12-20T07:00:11;8.68;;;2.97;;
27618;SDS011;15039;50.830;4.730;2023-12-20T07:02:37;24.27;;;3.50;;
27618;SDS011;15039;50.830;4.730;2023-12-20T07:05:03;6.25;;;2.40;;
27618;SDS011;15039;50.830;4.730;2023-12-20T07:07:29;6.28;;;2.30;;
27618;SDS011;15039;50.830;4.730;2023-12-20T07:09:55;9.75;;;2.88;;
27618;SDS011;15039;50.830;4.730;2023-12-20T07:12:21;8.32;;;2.40;;
27618;SDS011;15039;50.830;4.730;2023-12-20T07:14:46;7.85;;;2.38;;
27618;SDS011;15039;50.830;4.730;2023-12-20T07:17:12;8.75;;;2.78;;
27618;SDS011;15039;50.830;4.730;2023-12-20T07:19:40;10.88;;;3.05;;
27618;SDS011;15039;50.830;4.730;2023-12-20T07:22:06;7.70;;;2.40;;
27618;SDS011;15039;50.830;4.730;2023-12-20T07:24:32;11.43;;;3.15;;
27618;SDS011;15039;50.830;4.730;2023-12-20T07:26:59;7.72;;;2.67;;
27618;SDS011;15039;50.830;4.730;2023-12-20T07:29:25;9.30;;;2.92;;
27618;SDS011;15039;50.830;4.730;2023-12-20T07:31:51;7.78;;;2.35;;
27618;SDS011;15039;50.830;4.730;2023-12-20T07:34:18;6.70;;;2.42;;
27618;SDS011;15039;50.830;4.730;2023-12-20T07:36:45;10.65;;;2.50;;
27618;SDS011;15039;50.830;4.730;2023-12-20T07:39:11;10.07;;;2.42;;
27618;SDS011;15039;50.830;4.730;2023-12-20T07:41:36;6.53;;;2.20;;
27618;SDS011;15039;50.830;4.730;2023-12-20T07:44:03;8.40;;;2.35;;
27618;SDS011;15039;50.830;4.730;2023-12-20T07:46:29;10.15;;;2.38;;
27618;SDS011;15039;50.830;4.730;2023-12-20T07:48:55;9.68;;;2.28;;
27618;SDS011;15039;50.830;4.730;2023-12-20T07:51:20;5.25;;;2.05;;
27618;SDS011;15039;50.830;4.730;2023-12-20T07:53:46;11.30;;;2.40;;
27618;SDS011;15039;50.830;4.730;2023-12-20T07:56:18;18.63;;;4.18;;
27618;SDS011;15039;50.830;4.730;2023-12-20T07:58:45;9.40;;;2.45;;
27618;SDS011;15039;50.830;4.730;2023-12-20T08:01:11;5.07;;;2.20;;
27618;SDS011;15039;50.830;4.730;2023-12-20T08:03:37;8.38;;;2.92;;
27618;SDS011;15039;50.830;4.730;2023-12-20T08:06:04;13.93;;;3.20;;
27618;SDS011;15039;50.830;4.730;2023-12-20T08:08:30;7.30;;;2.40;;
27618;SDS011;15039;50.830;4.730;2023-12-20T08:10:55;9.45;;;2.35;;
27618;SDS011;15039;50.830;4.730;2023-12-20T08:13:24;9.07;;;2.75;;
27618;SDS011;15039;50.830;4.730;2023-12-20T08:15:51;5.53;;;2.65;;
27618;SDS011;15039;50.830;4.730;2023-12-20T08:18:18;6.97;;;2.30;;
27618;SDS011;15039;50.830;4.730;2023-12-20T08:20:43;9.90;;;2.30;;
27618;SDS011;15039;50.830;4.730;2023-12-20T08:23:09;8.95;;;2.95;;
27618;SDS011;15039;50.830;4.730;2023-12-20T08:25:35;8.23;;;2.92;;
27618;SDS011;15039;50.830;4.730;2023-12-20T08:28:02;9.25;;;2.30;;
27618;SDS011;15039;50.830;4.730;2023-12-20T08:30:29;8.77;;;2.30;;
27618;SDS011;15039;50.830;4.730;2023-12-20T08:32:56;7.72;;;2.08;;
27618;SDS011;15039;50.830;4.730;2023-12-20T08:35:21;10.32;;;2.75;;
27618;SDS011;15039;50.830;4.730;2023-12-20T08:37:47;7.15;;;2.10;;
27618;SDS011;15039;50.830;4.730;2023-12-20T08:40:13;8.50;;;2.50;;
27618;SDS011;15039;50.830;4.730;2023-12-20T08:42:39;8.23;;;1.95;;
27618;SDS011;15039;50.830;4.730;2023-12-20T08:45:04;8.77;;;2.45;;
27618;SDS011;15039;50.830;4.730;2023-12-20T08:47:31;7.97;;;2.85;;
27618;SDS011;15039;50.830;4.730;2023-12-20T08:49:57;6.20;;;2.10;;
27618;SDS011;15039;50.830;4.730;2023-12-20T08:52:24;5.80;;;2.25;;
27618;SDS011;15039;50.830;4.730;2023-12-20T08:54:52;6.93;;;2.28;;
27618;SDS011;15039;50.830;4.730;2023-12-20T08:57:21;8.35;;;2.05;;
27618;SDS011;15039;50.830;4.730;2023-12-20T08:59:50;11.30;;;2.13;;
27618;SDS011;15039;50.830;4.730;2023-12-20T09:02:16;9.63;;;2.13;;
27618;SDS011;15039;50.830;4.730;2023-12-20T09:04:42;13.13;;;2.38;;
27618;SDS011;15039;50.830;4.730;2023-12-20T09:07:26;8.80;;;2.55;;
27618;SDS011;15039;50.830;4.730;2023-12-20T09:09:52;7.63;;;2.38;;
27618;SDS011;15039;50.830;4.730;2023-12-20T09:12:18;8.18;;;1.98;;
27618;SDS011;15039;50.830;4.730;2023-12-20T09:14:48;6.90;;;1.98;;
27618;SDS011;15039;50.830;4.730;2023-12-20T09:17:15;8.52;;;2.13;;
27618;SDS011;15039;50.830;4.730;2023-12-20T09:19:42;6.07;;;2.17;;
27618;SDS011;15039;50.830;4.730;2023-12-20T09:22:11;7.05;;;1.90;;
27618;SDS011;15039;50.830;4.730;2023-12-20T09:24:37;9.50;;;2.20;;
27618;SDS011;15039;50.830;4.730;2023-12-20T09:27:06;8.48;;;2.28;;
27618;SDS011;15039;50.830;4.730;2023-12-20T09:29:32;6.20;;;2.13;;
27618;SDS011;15039;50.830;4.730;2023-12-20T09:31:58;6.97;;;2.17;;
27618;SDS011;15039;50.830;4.730;2023-12-20T09:34:24;5.45;;;1.95;;
27618;SDS011;15039;50.830;4.730;2023-12-20T09:36:50;10.00;;;1.98;;
27618;SDS011;15039;50.830;4.730;2023-12-20T09:39:17;9.40;;;2.33;;
27618;SDS011;15039;50.830;4.730;2023-12-20T09:42:06;8.98;;;2.05;;
27618;SDS011;15039;50.830;4.730;2023-12-20T09:44:32;7.07;;;2.33;;
27618;SDS011;15039;50.830;4.730;2023-12-20T09:47:00;7.72;;;2.25;;
27618;SDS011;15039;50.830;4.730;2023-12-20T09:49:28;6.63;;;1.90;;
27618;SDS011;15039;50.830;4.730;2023-12-20T09:51:55;6.55;;;2.03;;
27618;SDS011;15039;50.830;4.730;2023-12-20T09:54:22;6.82;;;2.03;;
27618;SDS011;15039;50.830;4.730;2023-12-20T09:56:49;10.85;;;2.38;;
27618;SDS011;15039;50.830;4.730;2023-12-20T09:59:15;6.88;;;2.50;;
27618;SDS011;15039;50.830;4.730;2023-12-20T10:01:41;8.20;;;2.15;;
27618;SDS011;15039;50.830;4.730;2023-12-20T10:04:08;8.70;;;1.90;;
27618;SDS011;15039;50.830;4.730;2023-12-20T10:06:40;14.07;;;2.17;;
27618;SDS011;15039;50.830;4.730;2023-12-20T10:09:06;4.75;;;1.65;;
27618;SDS011;15039;50.830;4.730;2023-12-20T10:11:32;10.88;;;2.78;;
27618;SDS011;15039;50.830;4.730;2023-12-20T10:14:02;8.48;;;2.13;;
27618;SDS011;15039;50.830;4.730;2023-12-20T10:16:28;7.13;;;1.92;;
27618;SDS011;15039;50.830;4.730;2023-12-20T10:18:54;5.85;;;2.20;;
27618;SDS011;15039;50.830;4.730;2023-12-20T10:21:24;6.90;;;1.75;;
27618;SDS011;15039;50.830;4.730;2023-12-20T10:23:51;8.57;;;1.92;;
27618;SDS011;15039;50.830;4.730;2023-12-20T10:26:19;8.93;;;2.13;;
27618;SDS011;15039;50.830;4.730;2023-12-20T10:28:46;7.88;;;2.28;;
27618;SDS011;15039;50.830;4.730;2023-12-20T10:31:32;7.55;;;2.45;;
27618;SDS011;15039;50.830;4.730;2023-12-20T10:33:59;6.85;;;2.08;;
27618;SDS011;15039;50.830;4.730;2023-12-20T10:36:26;7.78;;;2.05;;
27618;SDS011;15039;50.830;4.730;2023-12-20T10:38:53;5.82;;;1.98;;
27618;SDS011;15039;50.830;4.730;2023-12-20T10:41:27;6.78;;;2.08;;
27618;SDS011;15039;50.830;4.730;2023-12-20T10:44:00;8.52;;;2.65;;
27618;SDS011;15039;50.830;4.730;2023-12-20T10:46:28;6.03;;;2.03;;
27618;SDS011;15039;50.830;4.730;2023-12-20T10:48:55;6.18;;;2.42;;
27618;SDS011;15039;50.830;4.730;2023-12-20T10:51:22;9.40;;;2.55;;
27618;SDS011;15039;50.830;4.730;2023-12-20T10:53:49;5.05;;;1.75;;
27618;SDS011;15039;50.830;4.730;2023-12-20T10:56:19;9.68;;;2.20;;
27618;SDS011;15039;50.830;4.730;2023-12-20T10:58:46;5.95;;;2.08;;
27618;SDS011;15039;50.830;4.730;2023-12-20T11:01:14;7.82;;;2.10;;
27618;SDS011;15039;50.830;4.730;2023-12-20T11:03:53;7.95;;;1.98;;
27618;SDS011;15039;50.830;4.730;2023-12-20T11:06:24;8.13;;;2.07;;
27618;SDS011;15039;50.830;4.730;2023-12-20T11:14:46;5.40;;;2.00;;
27618;SDS011;15039;50.830;4.730;2023-12-20T11:17:13;6.57;;;2.45;;
27618;SDS011;15039;50.830;4.730;2023-12-20T11:22:27;12.02;;;2.30;;
27618;SDS011;15039;50.830;4.730;2023-12-20T11:24:55;6.30;;;1.83;;
27618;SDS011;15039;50.830;4.730;2023-12-20T11:27:34;6.18;;;2.35;;
27618;SDS011;15039;50.830;4.730;2023-12-20T11:30:02;7.10;;;2.38;;
27618;SDS011;15039;50.830;4.730;2023-12-20T11:32:32;7.15;;;2.10;;
27618;SDS011;15039;50.830;4.730;2023-12-20T11:35:00;7.53;;;2.53;;
27618;SDS011;15039;50.830;4.730;2023-12-20T11:37:41;10.77;;;2.55;;
27618;SDS011;15039;50.830;4.730;2023-12-20T11:40:08;7.47;;;2.20;;
27618;SDS011;15039;50.830;4.730;2023-12-20T11:42:40;10.70;;;2.28;;
27618;SDS011;15039;50.830;4.730;2023-12-20T11:45:10;11.30;;;2.78;;
27618;SDS011;15039;50.830;4.730;2023-12-20T11:47:41;8.75;;;2.53;;
27618;SDS011;15039;50.830;4.730;2023-12-20T11:50:09;7.05;;;2.30;;
27618;SDS011;15039;50.830;4.730;2023-12-20T11:52:34;7.45;;;2.33;;
27618;SDS011;15039;50.830;4.730;2023-12-20T11:55:00;6.72;;;2.30;;
27618;SDS011;15039;50.830;4.730;2023-12-20T11:57:26;6.50;;;1.92;;
27618;SDS011;15039;50.830;4.730;2023-12-20T11:59:52;9.70;;;2.08;;
27618;SDS011;15039;50.830;4.730;2023-12-20T12:02:17;8.23;;;2.13;;
27618;SDS011;15039;50.830;4.730;2023-12-20T12:04:43;8.50;;;2.00;;
27618;SDS011;15039;50.830;4.730;2023-12-20T12:07:09;6.88;;;2.13;;
27618;SDS011;15039;50.830;4.730;2023-12-20T12:09:35;10.27;;;1.95;;
27618;SDS011;15039;50.830;4.730;2023-12-20T12:12:00;9.73;;;2.92;;
27618;SDS011;15039;50.830;4.730;2023-12-20T12:14:26;6.10;;;1.80;;
27618;SDS011;15039;50.830;4.730;2023-12-20T12:16:52;9.07;;;2.47;;
27618;SDS011;15039;50.830;4.730;2023-12-20T12:19:24;4.65;;;1.77;;
27618;SDS011;15039;50.830;4.730;2023-12-20T12:21:51;10.27;;;2.38;;
27618;SDS011;15039;50.830;4.730;2023-12-20T12:24:35;7.50;;;2.00;;
27618;SDS011;15039;50.830;4.730;2023-12-20T12:27:02;7.60;;;2.20;;
27618;SDS011;15039;50.830;4.730;2023-12-20T12:29:28;9.15;;;2.35;;
27618;SDS011;15039;50.830;4.730;2023-12-20T12:31:54;6.40;;;2.05;;
27618;SDS011;15039;50.830;4.730;2023-12-20T12:34:20;8.63;;;2.17;;
27618;SDS011;15039;50.830;4.730;2023-12-20T12:36:45;10.38;;;2.25;;
27618;SDS011;15039;50.830;4.730;2023-12-20T12:39:13;9.73;;;2.30;;
27618;SDS011;15039;50.830;4.730;2023-12-20T12:41:42;7.80;;;1.92;;
27618;SDS011;15039;50.830;4.730;2023-12-20T12:44:08;7.10;;;2.55;;
27618;SDS011;15039;50.830;4.730;2023-12-20T12:46:34;5.68;;;2.40;;
27618;SDS011;15039;50.830;4.730;2023-12-20T12:49:00;5.75;;;2.05;;
27618;SDS011;15039;50.830;4.730;2023-12-20T12:51:25;8.77;;;2.25;;
27618;SDS011;15039;50.830;4.730;2023-12-20T12:53:51;14.07;;;2.65;;
27618;SDS011;15039;50.830;4.730;2023-12-20T12:56:18;8.95;;;2.22;;
27618;SDS011;15039;50.830;4.730;2023-12-20T12:58:44;7.18;;;2.13;;
27618;SDS011;15039;50.830;4.730;2023-12-20T13:01:10;6.80;;;2.28;;
27618;SDS011;15039;50.830;4.730;2023-12-20T13:03:36;8.13;;;2.50;;
27618;SDS011;15039;50.830;4.730;2023-12-20T13:06:01;7.85;;;2.30;;
27618;SDS011;15039;50.830;4.730;2023-12-20T13:08:28;5.30;;;2.22;;
27618;SDS011;15039;50.830;4.730;2023-12-20T13:10:54;7.38;;;2.25;;
27618;SDS011;15039;50.830;4.730;2023-12-20T13:13:22;8.35;;;2.33;;
27618;SDS011;15039;50.830;4.730;2023-12-20T13:15:48;12.52;;;2.50;;
27618;SDS011;15039;50.830;4.730;2023-12-20T13:18:17;9.10;;;2.38;;
27618;SDS011;15039;50.830;4.730;2023-12-20T13:20:44;5.25;;;1.90;;
27618;SDS011;15039;50.830;4.730;2023-12-20T13:23:10;6.88;;;2.03;;
27618;SDS011;15039;50.830;4.730;2023-12-20T13:25:35;7.78;;;2.20;;
27618;SDS011;15039;50.830;4.730;2023-12-20T13:28:01;8.00;;;2.20;;
27618;SDS011;15039;50.830;4.730;2023-12-20T13:30:30;8.07;;;2.05;;
27618;SDS011;15039;50.830;4.730;2023-12-20T13:32:56;7.13;;;2.05;;
27618;SDS011;15039;50.830;4.730;2023-12-20T13:35:22;8.93;;;2.38;;
27618;SDS011;15039;50.830;4.730;2023-12-20T13:37:47;8.80;;;2.40;;
27618;SDS011;15039;50.830;4.730;2023-12-20T13:40:13;7.07;;;2.00;;
27618;SDS011;15039;50.830;4.730;2023-12-20T13:42:39;8.50;;;1.95;;
27618;SDS011;15039;50.830;4.730;2023-12-20T13:45:05;8.65;;;2.28;;
27618;SDS011;15039;50.830;4.730;2023-12-20T13:47:32;11.32;;;2.10;;
27618;SDS011;15039;50.830;4.730;2023-12-20T13:49:57;8.32;;;2.17;;
27618;SDS011;15039;50.830;4.730;2023-12-20T13:52:23;9.55;;;2.28;;
27618;SDS011;15039;50.830;4.730;2023-12-20T13:54:49;7.78;;;2.80;;
27618;SDS011;15039;50.830;4.730;2023-12-20T13:57:15;14.23;;;2.33;;
27618;SDS011;15039;50.830;4.730;2023-12-20T13:59:40;13.45;;;3.25;;
27618;SDS011;15039;50.830;4.730;2023-12-20T14:02:06;9.93;;;2.22;;
27618;SDS011;15039;50.830;4.730;2023-12-20T14:04:32;15.52;;;2.60;;
27618;SDS011;15039;50.830;4.730;2023-12-20T14:06:57;9.32;;;2.10;;
27618;SDS011;15039;50.830;4.730;2023-12-20T14:09:23;6.43;;;2.47;;
27618;SDS011;15039;50.830;4.730;2023-12-20T14:11:50;6.68;;;2.63;;
27618;SDS011;15039;50.830;4.730;2023-12-20T14:14:15;13.38;;;3.25;;
27618;SDS011;15039;50.830;4.730;2023-12-20T14:16:41;8.68;;;2.47;;
27618;SDS011;15039;50.830;4.730;2023-12-20T14:19:10;8.80;;;1.80;;
27618;SDS011;15039;50.830;4.730;2023-12-20T14:21:36;9.38;;;1.95;;
27618;SDS011;15039;50.830;4.730;2023-12-20T14:24:01;18.23;;;2.45;;
27618;SDS011;15039;50.830;4.730;2023-12-20T14:26:29;10.25;;;2.40;;
27618;SDS011;15039;50.830;4.730;2023-12-20T14:28:55;7.32;;;2.55;;
27618;SDS011;15039;50.830;4.730;2023-12-20T14:31:21;11.55;;;2.88;;
27618;SDS011;15039;50.830;4.730;2023-12-20T14:33:49;9.77;;;2.67;;
27618;SDS011;15039;50.830;4.730;2023-12-20T14:36:16;8.10;;;1.77;;
27618;SDS011;15039;50.830;4.730;2023-12-20T14:38:43;9.18;;;2.40;;
27618;SDS011;15039;50.830;4.730;2023-12-20T14:41:09;9.93;;;2.35;;
27618;SDS011;15039;50.830;4.730;2023-12-20T14:43:34;8.65;;;2.55;;
27618;SDS011;15039;50.830;4.730;2023-12-20T14:46:00;8.43;;;2.75;;
27618;SDS011;15039;50.830;4.730;2023-12-20T14:48:26;6.22;;;2.30;;
27618;SDS011;15039;50.830;4.730;2023-12-20T14:50:53;5.97;;;2.50;;
27618;SDS011;15039;50.830;4.730;2023-12-20T14:53:19;6.57;;;1.92;;